Time;durP1;ratioP1;P1;durP2;ratioP2;P2;SDS_P1;SDS_P2;PMS_P1;PMS_P2;Temp;Humidity;BMP_temperature;BMP_pressure;BME280_temperature;BME280_humidity;BME280_pressure;Samples;Min_cycle;Max_cycle;Signal;HPM_P1;HPM_P2
2022/06/29 00:00:36;;;;;;;2.60;1.70;;;;;;;26.26;29.53;101193.13;5028956;28;20056;-74
2022/06/29 00:03:02;;;;;;;3.70;2.00;;;;;;;26.25;29.94;101183.00;5029561;28;20080;-73
2022/06/29 00:05:29;;;;;;;3.65;2.05;;;;;;;26.24;29.96;101189.63;5026516;28;20474;-73
2022/06/29 00:07:56;;;;;;;3.30;1.95;;;;;;;26.25;29.77;101184.94;5030230;28;20048;-75
2022/06/29 00:10:24;;;;;;;2.75;1.80;;;;;;;26.22;29.86;101186.19;5038043;28;20138;-73
2022/06/29 00:12:52;;;;;;;3.45;1.52;;;;;;;26.22;29.73;101190.88;5033370;28;20144;-72
2022/06/29 00:15:20;;;;;;;3.90;2.00;;;;;;;26.20;29.83;101181.84;5030158;28;20046;-74
2022/06/29 00:17:47;;;;;;;3.22;1.70;;;;;;;26.17;29.66;101179.50;5026336;28;20072;-75
2022/06/29 00:20:13;;;;;;;3.28;2.08;;;;;;;26.15;29.96;101193.59;5024056;28;20450;-72
2022/06/29 00:22:41;;;;;;;2.85;1.73;;;;;;;26.15;30.29;101190.81;5022937;28;20421;-73
2022/06/29 00:25:09;;;;;;;4.50;2.10;;;;;;;26.12;30.37;101189.28;5025394;28;20115;-73
2022/06/29 00:27:36;;;;;;;3.53;1.58;;;;;;;26.08;30.30;101185.16;5033626;28;20140;-72
2022/06/29 00:30:04;;;;;;;3.08;1.80;;;;;;;26.09;30.09;101197.16;5025815;28;20073;-76
2022/06/29 00:32:31;;;;;;;2.85;1.80;;;;;;;26.07;30.54;101193.72;5025336;28;20103;-75
2022/06/29 00:34:59;;;;;;;2.97;1.83;;;;;;;26.05;30.28;101185.56;5030327;28;20056;-72
2022/06/29 00:37:27;;;;;;;3.03;1.98;;;;;;;26.05;30.13;101184.69;5002342;28;20115;-74
2022/06/29 00:39:54;;;;;;;3.38;1.70;;;;;;;26.00;30.66;101174.16;5044831;28;20103;-74
2022/06/29 00:42:22;;;;;;;3.72;2.00;;;;;;;25.99;30.18;101171.56;5029448;28;20085;-74
2022/06/29 00:44:49;;;;;;;3.10;1.70;;;;;;;25.97;30.47;101182.88;5025117;28;20134;-73
2022/06/29 00:47:16;;;;;;;2.60;1.63;;;;;;;25.95;30.39;101182.22;5025369;28;20050;-74
2022/06/29 00:49:43;;;;;;;4.13;1.90;;;;;;;25.94;30.54;101182.44;5027551;28;20168;-74
2022/06/29 00:52:14;;;;;;;3.85;2.00;;;;;;;25.94;30.58;101176.88;5027609;28;20080;-75
2022/06/29 00:54:53;;;;;;;3.00;1.80;;;;;;;25.91;31.21;101172.53;5033617;28;20056;-73
2022/06/29 00:57:23;;;;;;;2.58;1.55;;;;;;;25.88;30.82;101175.69;5029743;28;20124;-73
2022/06/29 00:59:56;;;;;;;3.78;1.65;;;;;;;25.89;31.13;101177.44;5030318;28;20136;-74
2022/06/29 01:02:33;;;;;;;3.08;1.75;;;;;;;25.88;31.20;101172.91;5028586;28;20078;-74
2022/06/29 01:05:02;;;;;;;3.15;1.70;;;;;;;25.83;31.31;101169.88;5026726;28;20104;-74
2022/06/29 01:07:31;;;;;;;3.15;1.90;;;;;;;25.82;31.35;101170.91;5031387;28;20245;-74
2022/06/29 01:09:58;;;;;;;4.57;1.95;;;;;;;25.80;31.26;101167.47;5024755;28;20124;-74
2022/06/29 01:12:25;;;;;;;3.55;1.95;;;;;;;25.78;31.27;101170.44;5030217;28;20132;-74
2022/06/29 01:14:55;;;;;;;3.30;1.80;;;;;;;25.77;31.28;101163.16;5029390;28;20128;-76
2022/06/29 01:17:23;;;;;;;4.03;2.00;;;;;;;25.75;30.95;101164.41;5027515;28;20045;-73
2022/06/29 01:19:50;;;;;;;4.28;2.05;;;;;;;25.74;31.50;101162.69;5029701;28;20466;-74
2022/06/29 01:22:19;;;;;;;3.70;1.90;;;;;;;25.74;31.31;101171.03;5040787;28;20482;-75
2022/06/29 01:24:47;;;;;;;3.28;1.65;;;;;;;25.70;31.22;101169.69;5028082;28;20050;-74
2022/06/29 01:27:15;;;;;;;3.10;1.90;;;;;;;25.68;31.71;101158.78;5021139;28;20055;-74
2022/06/29 01:29:42;;;;;;;3.60;1.85;;;;;;;25.67;31.45;101154.25;5028080;28;20124;-74
2022/06/29 01:32:09;;;;;;;3.22;1.67;;;;;;;25.66;31.75;101162.78;5019385;28;20057;-74
2022/06/29 01:34:36;;;;;;;3.30;1.75;;;;;;;25.62;31.67;101165.09;5029707;28;20068;-73
2022/06/29 01:37:04;;;;;;;3.25;2.00;;;;;;;25.62;31.63;101165.09;5025055;28;20114;-74
2022/06/29 01:39:31;;;;;;;3.45;1.98;;;;;;;25.59;32.06;101159.94;5037086;28;20090;-74
2022/06/29 01:41:58;;;;;;;4.05;2.05;;;;;;;25.57;31.71;101155.56;5027204;28;20158;-74
2022/06/29 01:44:25;;;;;;;2.92;1.77;;;;;;;25.56;32.01;101149.16;5024242;28;20053;-73
2022/06/29 01:46:52;;;;;;;4.13;1.85;;;;;;;25.54;31.80;101162.38;5027640;28;20411;-74
2022/06/29 01:49:18;;;;;;;3.78;2.00;;;;;;;25.52;32.15;101156.16;5028135;28;20084;-74
2022/06/29 01:51:45;;;;;;;4.05;1.92;;;;;;;25.50;31.90;101152.69;5029564;28;20088;-74
2022/06/29 01:54:12;;;;;;;2.97;1.85;;;;;;;25.49;31.99;101152.88;5028086;28;20049;-73
2022/06/29 01:56:39;;;;;;;3.22;1.90;;;;;;;25.47;32.32;101149.44;5027979;28;20046;-74
2022/06/29 01:59:05;;;;;;;2.95;1.98;;;;;;;25.45;31.92;101151.56;5031968;28;20136;-73
2022/06/29 02:01:32;;;;;;;3.75;2.03;;;;;;;25.40;32.04;101141.88;5027259;28;20053;-73
2022/06/29 02:03:58;;;;;;;3.33;2.05;;;;;;;25.38;32.48;101138.41;5026334;28;20049;-75
2022/06/29 02:06:25;;;;;;;3.20;1.67;;;;;;;25.34;32.39;101136.22;5033046;28;20068;-73
2022/06/29 02:08:52;;;;;;;2.83;1.83;;;;;;;25.33;32.28;101131.72;5035709;28;20128;-73
2022/06/29 02:11:19;;;;;;;3.35;2.00;;;;;;;25.30;32.45;101130.16;5026990;28;20073;-76
2022/06/29 02:13:46;;;;;;;3.30;1.77;;;;;;;25.28;32.42;101129.50;5027185;28;20111;-73
2022/06/29 02:16:13;;;;;;;3.30;1.95;;;;;;;25.26;32.55;101125.19;5026870;28;20125;-76
2022/06/29 02:18:39;;;;;;;3.35;1.83;;;;;;;25.25;32.58;101132.66;5028786;28;20056;-74
2022/06/29 02:21:06;;;;;;;2.90;1.90;;;;;;;25.23;32.78;101134.78;5028140;28;20410;-75
2022/06/29 02:23:33;;;;;;;3.72;1.88;;;;;;;25.21;32.70;101125.75;5026945;28;20468;-73
2022/06/29 02:25:59;;;;;;;3.00;1.80;;;;;;;25.19;33.12;101121.47;5027911;28;20558;-76
2022/06/29 02:28:26;;;;;;;3.00;1.90;;;;;;;25.17;32.79;101120.78;5027809;28;20069;-73
2022/06/29 02:36:22;;;;;;;2.90;2.10;;;;;;;25.09;32.63;101113.41;5028510;28;20129;-73
2022/06/29 02:38:49;;;;;;;3.15;1.95;;;;;;;25.09;32.84;101116.19;5023199;28;20441;-75
2022/06/29 02:41:15;;;;;;;3.50;2.00;;;;;;;25.07;33.06;101107.16;5030292;28;20136;-74
2022/06/29 02:43:42;;;;;;;2.72;1.70;;;;;;;25.06;33.01;101112.91;5032907;28;20604;-75
2022/06/29 02:46:08;;;;;;;3.75;2.13;;;;;;;25.04;33.20;101110.31;5027612;28;20129;-73
2022/06/29 02:48:35;;;;;;;3.72;2.20;;;;;;;25.04;33.40;101112.25;5025792;28;20045;-74
2022/06/29 02:51:02;;;;;;;2.63;1.70;;;;;;;25.01;33.22;101119.91;5028705;28;20142;-75
2022/06/29 02:53:29;;;;;;;5.28;2.10;;;;;;;25.00;33.27;101111.75;5032443;28;20049;-74
2022/06/29 02:55:55;;;;;;;4.22;2.10;;;;;;;24.99;33.10;101121.16;5029100;28;20103;-73
2022/06/29 02:58:22;;;;;;;3.38;2.20;;;;;;;24.97;33.27;101114.91;5030857;28;20128;-73
2022/06/29 03:00:48;;;;;;;3.80;2.20;;;;;;;24.95;33.35;101109.53;5025962;28;20092;-75
2022/06/29 03:03:15;;;;;;;3.03;1.88;;;;;;;24.95;33.67;101111.47;5024456;28;20502;-73
2022/06/29 03:05:42;;;;;;;4.30;2.35;;;;;;;24.93;33.59;101116.34;5025814;28;20052;-74
2022/06/29 03:08:09;;;;;;;3.63;2.22;;;;;;;24.92;33.64;101120.19;5027189;28;20049;-74
2022/06/29 03:10:36;;;;;;;3.92;2.10;;;;;;;24.90;33.82;101112.00;5031455;28;20045;-73
2022/06/29 03:13:02;;;;;;;3.42;2.10;;;;;;;24.89;33.53;101115.81;5032898;28;20128;-73
2022/06/29 03:15:29;;;;;;;3.90;1.92;;;;;;;24.88;34.00;101116.00;5025491;28;20080;-73
2022/06/29 03:17:56;;;;;;;3.63;2.17;;;;;;;24.87;34.04;101117.09;5026956;28;20084;-73
2022/06/29 03:20:23;;;;;;;4.57;2.20;;;;;;;24.86;33.88;101115.38;5030820;28;20049;-73
2022/06/29 03:22:49;;;;;;;3.65;2.13;;;;;;;24.83;33.65;101110.19;5026379;28;20857;-76
2022/06/29 03:25:16;;;;;;;3.53;1.98;;;;;;;24.81;33.82;101103.94;5026778;28;20123;-75
2022/06/29 03:27:43;;;;;;;3.13;2.22;;;;;;;24.78;33.73;101098.78;5026567;28;20053;-74
2022/06/29 03:30:10;;;;;;;4.68;2.50;;;;;;;24.77;33.86;101099.84;5042234;28;20132;-73
2022/06/29 03:32:37;;;;;;;5.32;2.30;;;;;;;24.73;34.45;101102.09;5025679;28;20124;-74
2022/06/29 03:35:05;;;;;;;3.95;2.17;;;;;;;24.70;34.02;101088.63;5027728;28;20077;-73
2022/06/29 03:37:31;;;;;;;4.28;2.20;;;;;;;24.67;34.30;101097.31;5027565;28;20107;-74
2022/06/29 03:39:58;;;;;;;3.72;2.15;;;;;;;24.65;34.63;101089.16;5024427;28;20054;-73
2022/06/29 03:42:24;;;;;;;3.92;1.92;;;;;;;24.63;34.67;101093.19;5013512;28;20128;-74
2022/06/29 03:44:51;;;;;;;3.50;2.20;;;;;;;24.61;34.43;101087.84;5030516;28;20051;-74
2022/06/29 03:47:17;;;;;;;3.78;2.15;;;;;;;24.60;34.75;101080.56;5029115;28;20077;-74
2022/06/29 03:49:44;;;;;;;4.45;2.15;;;;;;;24.59;34.74;101086.28;5025633;28;20088;-73
2022/06/29 03:52:11;;;;;;;4.03;2.22;;;;;;;24.57;34.49;101071.72;5025904;28;20132;-73
2022/06/29 03:54:37;;;;;;;3.30;2.30;;;;;;;24.56;34.57;101081.97;5026727;28;20132;-73
2022/06/29 03:57:04;;;;;;;4.20;2.50;;;;;;;24.56;34.86;101072.78;5029918;28;20144;-74
2022/06/29 03:59:31;;;;;;;4.32;2.40;;;;;;;24.54;34.57;101075.72;5025959;28;20553;-74
2022/06/29 04:01:57;;;;;;;4.95;2.13;;;;;;;24.55;34.59;101071.03;5026465;28;20128;-74
2022/06/29 04:04:24;;;;;;;3.20;1.95;;;;;;;24.55;34.57;101065.50;5025435;28;20047;-74
2022/06/29 04:06:50;;;;;;;2.95;1.70;;;;;;;24.53;34.60;101068.47;5026873;28;20069;-74
2022/06/29 04:09:17;;;;;;;4.07;2.00;;;;;;;24.52;34.07;101065.88;5030112;28;20441;-76
2022/06/29 04:11:49;;;;;;;2.75;1.70;;;;;;;24.51;34.12;101065.03;5029272;28;20092;-75
2022/06/29 04:14:16;;;;;;;4.50;2.10;;;;;;;24.48;34.46;101064.53;5024254;28;20137;-75
2022/06/29 04:16:43;;;;;;;3.38;2.15;;;;;;;24.49;34.22;101069.03;5017339;28;20128;-73
2022/06/29 04:19:10;;;;;;;2.85;1.70;;;;;;;24.48;34.40;101070.94;5024970;28;20045;-76
2022/06/29 04:21:37;;;;;;;3.05;1.90;;;;;;;24.48;34.43;101072.84;5027832;28;20718;-73
2022/06/29 04:24:04;;;;;;;3.58;2.10;;;;;;;24.48;34.67;101070.06;5035208;28;20412;-75
2022/06/29 04:26:31;;;;;;;4.43;1.83;;;;;;;24.47;34.56;101074.75;5039218;28;20045;-75
2022/06/29 04:28:57;;;;;;;2.67;1.75;;;;;;;24.47;34.44;101073.91;5029798;28;20137;-75
2022/06/29 04:31:24;;;;;;;3.85;2.10;;;;;;;24.46;34.30;101073.03;5027549;28;20042;-76
2022/06/29 04:33:50;;;;;;;3.13;1.98;;;;;;;24.45;34.81;101063.00;5028237;28;20058;-73
2022/06/29 04:36:17;;;;;;;4.18;2.10;;;;;;;24.45;34.45;101063.00;5030385;28;20410;-74
2022/06/29 04:38:44;;;;;;;3.20;1.80;;;;;;;24.45;34.65;101064.91;5065072;23;20061;-79
2022/06/29 04:41:10;;;;;;;3.40;1.90;;;;;;;24.47;34.83;101060.00;5054339;28;20052;-79
2022/06/29 04:43:37;;;;;;;2.90;1.85;;;;;;;24.46;34.90;101064.69;5050132;28;20065;-74
2022/06/29 04:48:59;;;;;;;4.13;2.25;;;;;;;24.49;34.68;101061.56;5048464;28;20116;-74
2022/06/29 04:51:27;;;;;;;3.50;2.40;;;;;;;24.47;34.90;101065.56;5044858;28;20489;-74
2022/06/29 04:53:56;;;;;;;4.10;2.40;;;;;;;24.47;34.94;101055.31;5043733;28;20091;-74
2022/06/29 04:56:25;;;;;;;4.65;2.35;;;;;;;24.49;35.13;101063.47;5050553;28;20045;-74
2022/06/29 04:58:53;;;;;;;3.80;2.15;;;;;;;24.49;35.26;101061.56;5048342;28;20045;-74
2022/06/29 05:01:22;;;;;;;3.75;2.20;;;;;;;24.51;35.11;101051.13;5048439;28;20415;-74
2022/06/29 05:03:49;;;;;;;3.50;1.92;;;;;;;24.51;34.83;101053.91;5048304;28;20085;-74
2022/06/29 05:06:16;;;;;;;3.90;2.33;;;;;;;24.51;34.70;101048.38;5045027;28;20099;-74
2022/06/29 05:08:43;;;;;;;3.75;2.15;;;;;;;24.51;34.87;101048.38;5048432;28;20080;-74
2022/06/29 05:11:13;;;;;;;3.83;2.00;;;;;;;24.52;34.83;101057.56;5050912;28;20113;-74
2022/06/29 05:13:46;;;;;;;4.90;2.40;;;;;;;24.56;35.06;101056.97;5050893;28;20054;-74
2022/06/29 05:16:13;;;;;;;;;;;;;;;24.27;35.33;101056.91;5044409;28;20045;-73
2022/06/29 05:18:39;;;;;;;4.65;2.05;;;;;;;24.52;35.59;101050.09;5047572;28;20020;-74
2022/06/29 05:21:06;;;;;;;3.28;2.08;;;;;;;24.58;35.58;101054.88;5047149;28;20072;-73
2022/06/29 05:23:33;;;;;;;3.65;1.98;;;;;;;24.60;35.49;101055.56;5042675;28;20551;-74
2022/06/29 05:26:00;;;;;;;3.60;2.50;;;;;;;24.64;35.42;101056.91;5049441;28;20057;-73
2022/06/29 05:28:27;;;;;;;5.03;2.85;;;;;;;24.68;35.06;101068.50;5052957;28;20096;-74
2022/06/29 05:30:53;;;;;;;4.72;2.60;;;;;;;24.72;35.57;101074.53;5049822;28;20072;-73
2022/06/29 05:33:20;;;;;;;4.15;2.20;;;;;;;24.75;35.27;101076.94;5042578;28;20095;-73
2022/06/29 05:35:47;;;;;;;4.10;2.28;;;;;;;24.76;35.39;101071.19;5047913;28;20459;-73
2022/06/29 05:38:14;;;;;;;4.60;2.20;;;;;;;24.78;35.18;101073.78;5046724;28;20071;-73
2022/06/29 05:40:43;;;;;;;3.85;2.03;;;;;;;24.83;35.30;101074.06;5050194;28;20099;-73
2022/06/29 05:43:10;;;;;;;2.63;1.83;;;;;;;24.83;35.29;101071.28;5046533;28;20077;-73
2022/06/29 05:45:37;;;;;;;3.10;2.00;;;;;;;24.83;34.82;101071.28;5050964;28;20172;-73
2022/06/29 05:48:04;;;;;;;3.08;2.10;;;;;;;24.85;35.34;101078.38;5050718;28;20107;-73
2022/06/29 05:50:30;;;;;;;3.00;1.80;;;;;;;24.86;35.39;101073.69;5045634;28;20143;-73
2022/06/29 05:52:57;;;;;;;4.53;2.10;;;;;;;24.87;35.09;101069.88;5047179;28;20057;-73
2022/06/29 05:55:23;;;;;;;3.88;1.90;;;;;;;24.86;35.59;101060.69;5040853;28;20045;-73
2022/06/29 05:57:50;;;;;;;3.30;2.30;;;;;;;24.86;35.47;101060.69;5042785;28;20045;-72
2022/06/29 06:00:20;;;;;;;3.55;2.00;;;;;;;24.87;35.66;101058.75;5044189;28;20110;-72
2022/06/29 06:02:51;;;;;;;3.17;2.00;;;;;;;24.90;35.97;101058.38;5042527;28;20056;-74
2022/06/29 06:05:19;;;;;;;5.05;2.20;;;;;;;24.90;35.98;101059.22;5041657;28;20427;-74
2022/06/29 06:07:45;;;;;;;3.85;2.20;;;;;;;24.91;36.03;101055.44;5049573;28;20114;-74
2022/06/29 06:10:12;;;;;;;4.03;2.50;;;;;;;24.93;36.35;101052.47;5051410;28;20044;-74
2022/06/29 06:12:39;;;;;;;3.88;2.20;;;;;;;24.96;36.40;101054.84;5041476;28;20068;-74
2022/06/29 06:15:07;;;;;;;3.45;1.85;;;;;;;24.96;36.16;101044.59;5048460;28;20095;-74
2022/06/29 06:17:34;;;;;;;3.53;2.15;;;;;;;24.99;36.37;101040.59;5042061;28;20053;-73
2022/06/29 06:20:02;;;;;;;2.92;2.05;;;;;;;25.00;35.84;101045.94;5051531;28;20648;-74
2022/06/29 06:22:29;;;;;;;3.38;1.90;;;;;;;25.01;35.95;101039.34;5050191;28;20044;-74
2022/06/29 06:24:55;;;;;;;3.33;2.05;;;;;;;25.02;35.93;101041.06;5052340;28;20048;-74
2022/06/29 06:27:22;;;;;;;4.30;2.13;;;;;;;25.04;36.24;101040.03;5058637;28;20041;-73
2022/06/29 06:29:49;;;;;;;3.22;1.85;;;;;;;25.04;36.33;101046.41;5052364;28;20136;-74
2022/06/29 06:32:15;;;;;;;5.32;2.28;;;;;;;25.06;36.11;101040.66;5050841;28;20438;-73
2022/06/29 06:34:42;;;;;;;3.08;1.90;;;;;;;25.07;36.25;101036.84;5040921;28;20044;-74
2022/06/29 06:37:09;;;;;;;3.53;2.40;;;;;;;25.11;35.86;101038.19;5052220;28;20077;-73
2022/06/29 06:39:35;;;;;;;3.10;1.95;;;;;;;25.12;35.39;101046.31;5051654;28;20044;-72
2022/06/29 06:42:02;;;;;;;4.45;1.75;;;;;;;25.16;35.39;101046.81;5042278;28;20128;-73
2022/06/29 06:44:29;;;;;;;3.88;2.10;;;;;;;25.18;35.48;101041.94;5065030;28;20056;-74
2022/06/29 06:46:59;;;;;;;3.15;1.85;;;;;;;25.22;35.37;101043.25;5050222;28;20472;-74
2022/06/29 06:49:27;;;;;;;2.95;2.00;;;;;;;25.23;35.49;101040.28;5048504;28;20045;-73
2022/06/29 06:51:53;;;;;;;4.43;1.92;;;;;;;25.26;35.26;101045.47;5046089;28;20126;-75
2022/06/29 06:54:20;;;;;;;4.30;1.90;;;;;;;25.29;34.99;101042.28;5055185;28;20057;-74
2022/06/29 06:56:47;;;;;;;2.53;1.60;;;;;;;25.32;34.59;101047.47;5049346;28;20045;-74
2022/06/29 06:59:14;;;;;;;3.70;1.90;;;;;;;25.35;34.46;101046.22;5050367;28;20045;-74
2022/06/29 07:01:41;;;;;;;3.13;1.75;;;;;;;25.38;34.72;101054.16;5043327;28;20049;-74
2022/06/29 07:04:14;;;;;;;3.05;1.60;;;;;;;25.40;34.13;101055.69;5047079;28;20552;-74
2022/06/29 07:06:41;;;;;;;3.75;1.83;;;;;;;25.43;33.90;101057.22;5046705;28;20038;-73
2022/06/29 07:09:08;;;;;;;5.22;2.20;;;;;;;25.45;33.68;101052.31;5047139;28;20049;-73
2022/06/29 07:11:34;;;;;;;3.15;1.92;;;;;;;25.49;33.39;101061.13;5049998;28;20098;-73
2022/06/29 07:14:01;;;;;;;2.75;1.77;;;;;;;25.48;33.82;101057.50;5057269;28;20044;-73
2022/06/29 07:16:29;;;;;;;4.22;2.05;;;;;;;25.49;33.18;101059.22;5051660;28;20045;-73
2022/06/29 07:18:56;;;;;;;3.60;2.03;;;;;;;25.52;33.19;101055.19;5046618;28;20132;-73
2022/06/29 07:21:22;;;;;;;4.18;1.90;;;;;;;25.52;33.00;101053.28;5046797;28;20087;-73
2022/06/29 07:23:49;;;;;;;3.38;1.85;;;;;;;25.53;33.36;101052.19;5046248;28;20076;-74
2022/06/29 07:26:16;;;;;;;3.78;1.75;;;;;;;25.56;33.30;101053.75;5048854;28;20079;-73
2022/06/29 07:28:42;;;;;;;2.40;1.60;;;;;;;25.57;33.26;101053.53;5055229;28;20049;-74
2022/06/29 07:31:09;;;;;;;3.70;1.80;;;;;;;25.58;32.73;101046.94;5044055;28;20155;-74
2022/06/29 07:33:36;;;;;;;5.65;1.77;;;;;;;25.59;32.53;101051.47;5045447;28;20049;-74
2022/06/29 07:36:03;;;;;;;4.72;1.98;;;;;;;25.60;32.71;101053.19;5048683;28;20048;-73
2022/06/29 07:38:30;;;;;;;4.03;1.92;;;;;;;25.62;32.63;101047.41;5037596;28;20049;-74
2022/06/29 07:40:58;;;;;;;3.50;1.75;;;;;;;25.63;32.53;101038.03;5050047;28;20092;-73
2022/06/29 07:43:25;;;;;;;2.88;1.80;;;;;;;25.62;32.74;101048.28;5053522;28;20412;-74
2022/06/29 07:45:52;;;;;;;3.17;1.75;;;;;;;25.64;32.58;101039.75;5051563;28;20076;-74
2022/06/29 07:48:19;;;;;;;2.80;1.70;;;;;;;25.65;32.44;101041.47;5048689;28;20052;-73
2022/06/29 07:50:46;;;;;;;2.33;1.70;;;;;;;25.65;32.63;101034.00;5047586;28;20064;-73
2022/06/29 07:53:13;;;;;;;2.78;1.70;;;;;;;25.67;32.28;101039.38;5044809;28;20052;-74
2022/06/29 07:55:40;;;;;;;2.42;1.85;;;;;;;25.67;32.97;101051.34;5050121;28;20504;-73
2022/06/29 07:58:06;;;;;;;3.22;1.70;;;;;;;25.68;32.63;101041.97;5047064;28;20094;-74
2022/06/29 08:00:33;;;;;;;3.13;1.70;;;;;;;25.70;32.88;101039.81;5047348;28;20453;-74
2022/06/29 08:03:00;;;;;;;2.45;1.55;;;;;;;25.72;33.09;101050.75;5046587;28;20045;-74
2022/06/29 08:05:27;;;;;;;2.92;2.05;;;;;;;25.75;32.53;101044.81;5053286;28;20102;-82
2022/06/29 08:07:54;;;;;;;4.13;1.80;;;;;;;25.76;32.67;101046.53;5039090;28;20051;-82
2022/06/29 08:10:21;;;;;;;4.35;2.13;;;;;;;25.78;32.94;101050.81;5066717;28;20049;-82
2022/06/29 08:12:48;;;;;;;5.13;1.77;;;;;;;25.81;32.52;101052.34;5047649;28;20057;-82
2022/06/29 08:15:17;;;;;;;2.83;1.80;;;;;;;25.82;32.69;101042.97;5045132;28;20111;-82
2022/06/29 08:17:44;;;;;;;3.55;2.00;;;;;;;25.85;32.26;101041.72;5053429;28;20391;-82
2022/06/29 08:20:12;;;;;;;2.15;1.63;;;;;;;25.86;32.59;101043.44;5064913;28;20459;-82
2022/06/29 08:22:39;;;;;;;4.20;1.70;;;;;;;25.87;32.51;101045.13;5053908;28;20049;-82
2022/06/29 08:25:06;;;;;;;3.17;1.90;;;;;;;25.88;32.08;101044.94;5070410;28;20052;-82
2022/06/29 08:27:33;;;;;;;2.60;1.58;;;;;;;25.89;32.08;101041.09;5056995;28;20049;-82
2022/06/29 08:30:11;;;;;;;3.80;2.15;;;;;;;25.92;32.04;101051.00;5051128;28;20045;-82
2022/06/29 08:32:42;;;;;;;3.03;1.90;;;;;;;25.92;32.40;101051.84;5059608;28;20049;-82
2022/06/29 08:35:10;;;;;;;3.20;1.90;;;;;;;25.92;32.81;101054.63;5059463;28;20084;-82
2022/06/29 08:37:38;;;;;;;3.85;2.03;;;;;;;25.94;32.64;101049.75;5067370;28;20048;-82
2022/06/29 08:40:10;;;;;;;3.50;1.73;;;;;;;25.97;32.85;101052.09;5076784;28;20410;-82
2022/06/29 08:42:38;;;;;;;3.28;1.60;;;;;;;25.92;33.00;101046.28;5072540;28;20048;-83
2022/06/29 08:45:09;;;;;;;3.28;1.85;;;;;;;25.98;32.98;101042.69;5083281;28;20049;-82
2022/06/29 08:47:37;;;;;;;3.40;1.80;;;;;;;25.95;32.92;101045.88;5056675;28;20062;-82
2022/06/29 08:50:08;;;;;;;4.22;2.00;;;;;;;26.00;33.10;101054.50;5045087;28;20280;-82
2022/06/29 08:52:36;;;;;;;4.60;2.17;;;;;;;25.99;33.03;101047.22;5053771;28;20056;-83
2022/06/29 08:55:04;;;;;;;4.63;2.08;;;;;;;26.00;32.61;101054.50;5064397;28;20041;-82
2022/06/29 08:57:35;;;;;;;3.75;1.85;;;;;;;26.03;32.83;101045.75;5067947;28;20470;-82
2022/06/29 09:00:03;;;;;;;3.22;1.85;;;;;;;26.01;32.50;101056.22;5063791;28;20469;-82
2022/06/29 09:02:30;;;;;;;3.83;1.85;;;;;;;26.01;32.55;101047.88;5067139;28;20060;-82
2022/06/29 09:04:58;;;;;;;4.70;2.15;;;;;;;26.01;32.89;101053.44;5064547;28;20084;-82
2022/06/29 09:07:25;;;;;;;2.90;1.83;;;;;;;26.02;32.31;101065.44;5068698;28;20124;-83
2022/06/29 09:10:12;;;;;;;4.38;1.90;;;;;;;26.02;32.50;101059.88;5063990;28;20044;-82
2022/06/29 09:12:40;;;;;;;2.47;1.55;;;;;;;26.00;32.51;101064.78;5062992;28;20079;-82
2022/06/29 09:15:09;;;;;;;3.13;2.00;;;;;;;26.02;32.45;101065.44;5055388;28;20053;-82
2022/06/29 09:17:36;;;;;;;4.18;1.92;;;;;;;26.01;32.54;101061.78;5053183;28;20056;-82
2022/06/29 09:20:05;;;;;;;3.10;1.80;;;;;;;26.01;32.44;101061.78;5057387;28;20099;-82
2022/06/29 09:22:57;;;;;;;2.97;1.70;;;;;;;26.01;32.14;101070.16;5054417;28;20048;-82
2022/06/29 09:25:29;;;;;;;2.58;1.83;;;;;;;25.97;32.38;101066.03;5065848;28;20092;-82
2022/06/29 09:27:56;;;;;;;3.30;2.05;;;;;;;25.96;32.52;101060.66;5056296;28;20094;-82
2022/06/29 09:30:26;;;;;;;3.92;1.92;;;;;;;25.99;32.67;101065.81;5053391;28;20052;-82
2022/06/29 09:33:05;;;;;;;3.13;2.00;;;;;;;26.02;32.85;101073.78;5070697;28;20045;-82
2022/06/29 09:35:34;;;;;;;3.65;2.13;;;;;;;26.00;32.64;101075.91;5064081;28;20106;-83
2022/06/29 09:38:24;;;;;;;3.25;2.00;;;;;;;26.00;32.39;101073.97;5058575;28;20119;-82
2022/06/29 09:41:07;;;;;;;4.88;2.08;;;;;;;26.03;32.49;101067.13;5051849;28;20118;-82
2022/06/29 09:43:36;;;;;;;3.97;2.10;;;;;;;26.01;32.54;101067.34;5064370;28;20158;-82
2022/06/29 09:46:04;;;;;;;3.67;1.98;;;;;;;26.02;33.00;101066.31;5071207;28;20102;-82
2022/06/29 09:48:33;;;;;;;3.10;2.00;;;;;;;26.05;32.58;101063.09;5057888;28;20065;-82
2022/06/29 09:51:01;;;;;;;2.92;1.90;;;;;;;26.05;32.96;101063.09;5060587;28;20283;-82
2022/06/29 09:53:39;;;;;;;3.92;2.10;;;;;;;26.11;32.82;101061.44;5067917;28;20048;-82
2022/06/29 09:56:07;;;;;;;3.38;1.95;;;;;;;26.11;32.92;101048.38;5050672;28;20053;-82
2022/06/29 09:58:37;;;;;;;3.55;2.20;;;;;;;26.15;32.76;101049.72;5067974;28;20484;-82
2022/06/29 10:03:55;;;;;;;3.83;2.08;;;;;;;26.21;32.70;101045.28;5075007;28;20247;-82
2022/06/29 10:06:22;;;;;;;2.65;1.98;;;;;;;26.25;32.63;101051.31;5067577;28;20998;-82
2022/06/29 10:08:53;;;;;;;3.10;1.88;;;;;;;26.31;33.07;101048.63;5053689;28;20075;-83
2022/06/29 10:14:43;;;;;;;4.05;2.10;;;;;;;26.43;32.64;101041.47;5053384;28;20059;-83
2022/06/29 10:17:49;;;;;;;3.20;1.73;;;;;;;26.48;32.47;101038.06;5055452;28;20049;-82
2022/06/29 10:20:34;;;;;;;2.72;1.60;;;;;;;26.53;32.55;101050.31;5055703;28;20098;-81
2022/06/29 10:23:01;;;;;;;3.03;1.88;;;;;;;26.63;32.44;101040.75;5063671;28;20079;-83
2022/06/29 10:25:30;;;;;;;2.53;1.58;;;;;;;26.76;32.26;101035.28;5053615;28;20064;-82
2022/06/29 10:28:16;;;;;;;3.30;1.90;;;;;;;26.84;32.51;101033.19;5047130;28;20067;-82
2022/06/29 10:30:45;;;;;;;5.00;1.75;;;;;;;26.92;32.94;101032.22;5060026;28;20049;-83
2022/06/29 10:33:34;;;;;;;3.40;2.00;;;;;;;27.04;32.26;101040.84;5070281;28;20052;-83
2022/06/29 10:36:09;;;;;;;3.20;1.88;;;;;;;27.13;32.41;101029.31;5055347;28;20049;-83
2022/06/29 10:38:50;;;;;;;3.10;1.95;;;;;;;27.24;32.25;101027.88;5051178;28;20048;-82
2022/06/29 10:44:07;;;;;;;3.10;1.73;;;;;;;27.40;32.08;101027.53;5046871;28;20127;-83
2022/06/29 10:46:58;;;;;;;3.78;1.95;;;;;;;27.51;31.31;101037.19;5042574;28;20107;-82
2022/06/29 10:49:25;;;;;;;2.97;1.77;;;;;;;27.57;32.04;101028.06;5040027;28;20045;-83
2022/06/29 10:51:53;;;;;;;3.50;1.73;;;;;;;27.69;31.48;101028.28;5046984;28;20450;-83
2022/06/29 10:54:24;;;;;;;3.35;1.90;;;;;;;27.80;31.30;101020.16;5039053;28;20061;-82
2022/06/29 10:56:52;;;;;;;2.75;1.60;;;;;;;27.85;31.23;101016.72;5050766;28;20044;-75
2022/06/29 10:59:38;;;;;;;3.15;1.77;;;;;;;27.94;30.16;101023.84;5041159;28;20094;-75
2022/06/29 11:02:09;;;;;;;2.63;1.83;;;;;;;28.03;30.45;101017.84;5041336;28;20086;-75
2022/06/29 11:04:37;;;;;;;3.25;1.63;;;;;;;28.09;30.77;101007.75;5023555;28;20132;-75
2022/06/29 11:12:53;;;;;;;3.35;1.80;;;;;;;28.33;30.67;101006.31;5042243;28;20526;-75
2022/06/29 11:15:42;;;;;;;2.05;1.58;;;;;;;28.41;30.65;101002.44;5045578;28;20088;-76
2022/06/29 11:18:13;;;;;;;3.33;1.95;;;;;;;28.45;30.74;100999.00;5056785;28;20626;-75
2022/06/29 11:20:43;;;;;;;3.50;2.00;;;;;;;28.51;30.36;100994.47;5058533;28;20099;-76
2022/06/29 11:23:12;;;;;;;4.00;2.00;;;;;;;28.62;30.59;100997.47;5049693;28;20139;-75
2022/06/29 11:25:41;;;;;;;4.05;1.85;;;;;;;28.69;30.77;100992.72;5051534;28;20157;-75
2022/06/29 11:28:09;;;;;;;3.30;1.92;;;;;;;28.78;30.55;100996.19;5057189;28;20572;-76
2022/06/29 11:30:35;;;;;;;2.53;1.73;;;;;;;28.85;30.33;100993.38;5040688;28;20091;-75
2022/06/29 11:33:12;;;;;;;4.90;2.00;;;;;;;28.97;29.30;100986.03;5059788;28;20045;-75
2022/06/29 11:35:42;;;;;;;2.83;1.70;;;;;;;29.01;29.80;100985.38;5048421;28;20415;-75
2022/06/29 11:38:09;;;;;;;3.08;1.80;;;;;;;29.09;29.81;100973.94;5041400;28;20080;-75
2022/06/29 11:40:41;;;;;;;3.42;1.95;;;;;;;29.19;30.19;100978.22;5044609;28;20106;-75
2022/06/29 11:43:14;;;;;;;2.78;1.98;;;;;;;29.26;29.79;100974.31;5051974;28;20049;-74
2022/06/29 11:45:47;;;;;;;3.20;1.80;;;;;;;29.35;29.46;100974.91;5049735;28;20045;-75
2022/06/29 11:48:18;;;;;;;2.85;1.73;;;;;;;29.40;28.37;100964.78;5042635;28;20522;-75
2022/06/29 11:50:46;;;;;;;2.30;1.60;;;;;;;29.44;28.79;100957.69;5056100;28;20044;-75
2022/06/29 11:53:33;;;;;;;3.72;2.00;;;;;;;29.49;28.76;100959.78;5040587;28;20257;-75